Terminal Aerodrome Forecast
Issued by NWS

Home | Current Version | Previous Version | Text Only | Print | Product List | Glossary On
Versions: 1 2 3 4 5 6 7 8 9 10 11 12 13 14 15 16 17 18
000
FTUS41 KCAR 270540
TAFHUL
TAF
KHUL 270540Z 2706/2806 VRB03KT P6SM BKN100 OVC180
     FM271300 27006KT P6SM SCT120
     FM271500 27010G18KT P6SM SCT045
     FM280000 VRB03KT P6SM FEW120=

USA.gov is the U.S. government's official web portal to all federal, state and local government web resources and services.